createdAt,value
2023-04-23T00:04:24.266Z,41.45
2023-04-23T00:09:33.687Z,41.10
2023-04-23T00:14:36.979Z,40.60
2023-04-23T00:19:39.787Z,40.64
2023-04-23T00:24:42.728Z,41.07
2023-04-23T00:29:46.759Z,40.25
2023-04-23T00:34:49.656Z,40.33
2023-04-23T00:39:52.456Z,40.82
2023-04-23T00:44:56.328Z,40.53
2023-04-23T00:50:00.234Z,41.01
2023-04-23T00:55:03.720Z,40.84
2023-04-23T01:00:07.884Z,41.39
2023-04-23T01:05:11.832Z,40.76
2023-04-23T01:10:14.764Z,40.52
2023-04-23T01:15:17.989Z,40.33
2023-04-23T01:20:21.273Z,39.63
2023-04-23T01:25:24.032Z,38.90
2023-04-23T01:30:27.995Z,39.02
2023-04-23T01:35:32.349Z,39.76
2023-04-23T01:40:35.110Z,39.93
2023-04-23T01:45:37.977Z,40.17
2023-04-23T01:50:41.501Z,39.96
2023-04-23T01:55:46.679Z,40.59
2023-04-23T02:00:50.298Z,40.53
2023-04-23T02:05:55.354Z,40.56
2023-04-23T02:10:58.267Z,40.46
2023-04-23T02:16:01.249Z,40.56
2023-04-23T02:21:05.046Z,40.62
2023-04-23T02:26:08.368Z,40.08
2023-04-23T02:31:11.305Z,40.93
2023-04-23T02:36:16.485Z,40.53
2023-04-23T02:41:19.280Z,40.56
2023-04-23T02:46:22.245Z,40.07
2023-04-23T02:51:25.031Z,40.08
2023-04-23T02:56:27.818Z,39.79
2023-04-23T03:01:30.686Z,40.16
2023-04-23T03:06:35.956Z,40.27
2023-04-23T03:11:38.911Z,40.01
2023-04-23T03:16:42.423Z,40.07
2023-04-23T03:21:45.399Z,39.79
2023-04-23T03:26:48.183Z,39.34
2023-04-23T03:31:51.439Z,39.29
2023-04-23T03:36:54.378Z,39.30
2023-04-23T03:41:58.544Z,38.91
2023-04-23T03:47:05.015Z,38.85
2023-04-23T03:52:08.779Z,38.39
2023-04-23T03:57:14.861Z,38.62
2023-04-23T04:02:41.926Z,38.42
2023-04-23T04:07:44.944Z,38.51
2023-04-23T04:12:48.385Z,37.91
2023-04-23T04:17:51.285Z,37.73
2023-04-23T04:22:54.127Z,37.78
2023-04-23T04:27:57.967Z,37.47
2023-04-23T04:33:01.772Z,37.18
2023-04-23T04:38:04.520Z,36.56
2023-04-23T04:43:07.582Z,36.31
2023-04-23T04:48:10.386Z,35.93
2023-04-23T04:53:13.529Z,36.00
2023-04-23T04:58:16.458Z,35.63
2023-04-23T05:03:20.050Z,35.36
2023-04-23T05:08:23.548Z,34.17
2023-04-23T05:13:26.450Z,34.25
2023-04-23T05:18:30.085Z,34.07
2023-04-23T05:23:33.567Z,33.68
2023-04-23T05:28:36.977Z,32.87
2023-04-23T05:33:49.256Z,31.87
2023-04-23T05:38:53.037Z,31.75
2023-04-23T05:43:55.862Z,30.43
2023-04-23T05:48:58.629Z,30.78
2023-04-23T05:54:01.384Z,30.25
2023-04-23T05:59:04.482Z,30.14
2023-04-23T06:04:08.536Z,30.62
2023-04-23T06:09:11.385Z,30.13
2023-04-23T06:14:14.344Z,29.91
2023-04-23T06:19:17.226Z,29.37
2023-04-23T06:24:20.109Z,29.45
2023-04-23T06:29:22.863Z,28.68
2023-04-23T06:34:32.960Z,28.88
2023-04-23T06:39:35.697Z,28.18
2023-04-23T06:44:38.584Z,28.58
2023-04-23T06:49:41.682Z,28.37
2023-04-23T06:54:44.607Z,27.43
2023-04-23T06:59:48.014Z,27.77
2023-04-23T07:04:51.885Z,27.44
2023-04-23T07:09:54.851Z,27.05
2023-04-23T07:14:57.898Z,27.45
2023-04-23T07:20:01.192Z,27.49
2023-04-23T07:25:05.758Z,25.61
2023-04-23T07:30:09.746Z,26.24
2023-04-23T07:35:12.560Z,26.06
2023-04-23T07:40:15.566Z,25.44
2023-04-23T07:45:19.644Z,25.48
2023-04-23T07:50:22.518Z,24.82
2023-04-23T07:55:25.370Z,24.09
2023-04-23T08:00:28.114Z,24.53
2023-04-23T08:05:31.313Z,24.72
2023-04-23T08:10:34.417Z,24.74
2023-04-23T08:15:37.745Z,24.74
2023-04-23T08:20:40.638Z,24.57
2023-04-23T08:25:43.766Z,24.42
2023-04-23T08:30:47.112Z,24.84
2023-04-23T08:35:50.131Z,25.08
2023-04-23T08:40:57.386Z,25.27
2023-04-23T08:46:04.689Z,25.58
2023-04-23T08:51:10.461Z,25.97
2023-04-23T08:56:14.463Z,25.39
2023-04-23T09:01:18.546Z,25.46
2023-04-23T09:06:22.523Z,25.60
2023-04-23T09:11:28.180Z,25.00
2023-04-23T09:16:31.198Z,24.88
2023-04-23T09:21:34.464Z,24.47
2023-04-23T09:26:44.961Z,24.65
2023-04-23T09:31:50.051Z,23.89
2023-04-23T09:36:54.059Z,24.27
2023-04-23T09:42:04.097Z,24.31
2023-04-23T09:47:12.431Z,24.71
2023-04-23T09:52:15.368Z,24.99
2023-04-23T09:57:18.149Z,24.97
2023-04-23T10:02:21.469Z,24.65
2023-04-23T10:07:29.833Z,24.75
2023-04-23T10:12:51.970Z,24.96
2023-04-23T10:17:56.160Z,25.51
2023-04-23T10:23:01.232Z,25.72
2023-04-23T10:28:05.131Z,25.91
2023-04-23T10:33:15.802Z,26.36
2023-04-23T10:38:28.633Z,26.45
2023-04-23T10:43:31.861Z,26.88
2023-04-23T10:49:15.787Z,27.25
2023-04-23T10:54:20.324Z,27.64
2023-04-23T10:59:23.367Z,27.78
2023-04-23T11:04:30.533Z,27.88
2023-04-23T11:10:13.701Z,27.88
2023-04-23T11:15:19.736Z,27.70
2023-04-23T11:20:23.085Z,27.94
2023-04-23T11:25:28.075Z,27.50
2023-04-23T11:30:31.459Z,27.63
2023-04-23T11:35:40.899Z,27.24
2023-04-23T11:40:48.794Z,27.33
2023-04-23T11:45:51.718Z,27.50
2023-04-23T11:50:54.618Z,27.74
2023-04-23T11:55:58.344Z,28.21
2023-04-23T12:01:02.498Z,28.86
2023-04-23T12:06:06.257Z,29.18
2023-04-23T12:11:09.028Z,29.49
2023-04-23T12:16:11.906Z,29.07
2023-04-23T12:21:15.283Z,29.34
2023-04-23T12:26:20.773Z,29.33
2023-04-23T12:31:25.203Z,29.45
2023-04-23T12:36:30.203Z,29.77
2023-04-23T12:41:33.616Z,30.58
2023-04-23T12:46:36.571Z,30.86
2023-04-23T12:51:39.454Z,30.70
2023-04-23T12:56:42.358Z,30.55
2023-04-23T13:01:45.258Z,30.06
2023-04-23T13:06:48.489Z,29.54
2023-04-23T13:11:51.397Z,29.42
2023-04-23T13:16:54.547Z,30.06
2023-04-23T13:21:57.464Z,29.55
2023-04-23T13:27:01.995Z,29.61
2023-04-23T13:32:04.896Z,29.99
2023-04-23T13:37:09.599Z,30.00
2023-04-23T13:42:12.439Z,30.41
2023-04-23T13:47:15.226Z,30.39
2023-04-23T13:52:18.057Z,30.43
2023-04-23T13:57:20.856Z,30.54
2023-04-23T14:02:24.495Z,30.32
2023-04-23T14:07:27.308Z,30.50
2023-04-23T14:12:30.198Z,30.76
2023-04-23T14:17:33.275Z,30.62
2023-04-23T14:22:37.188Z,30.62
2023-04-23T14:27:42.430Z,30.59
2023-04-23T14:32:49.678Z,30.80
2023-04-23T14:37:52.636Z,30.96
2023-04-23T14:42:59.381Z,30.95
2023-04-23T14:48:07.907Z,31.40
2023-04-23T14:53:11.047Z,31.58
2023-04-23T14:58:13.849Z,31.91
2023-04-23T15:03:16.997Z,31.73
2023-04-23T15:08:21.405Z,31.85
2023-04-23T15:13:40.299Z,31.89
2023-04-23T15:18:43.004Z,31.90
2023-04-23T15:23:45.856Z,32.28
2023-04-23T15:28:49.241Z,32.19
2023-04-23T15:33:52.041Z,32.33
2023-04-23T15:38:55.198Z,32.20
2023-04-23T15:43:58.365Z,32.28
2023-04-23T15:49:01.160Z,32.40
2023-04-23T15:54:06.206Z,32.55
2023-04-23T15:59:09.240Z,32.52
2023-04-23T16:04:12.564Z,32.54
2023-04-23T16:09:15.705Z,32.71
2023-04-23T16:14:18.381Z,32.83
2023-04-23T16:19:21.753Z,33.13
2023-04-23T16:24:24.956Z,33.15
2023-04-23T16:29:27.986Z,33.67
2023-04-23T16:34:31.155Z,33.31
2023-04-23T16:39:34.056Z,33.46
2023-04-23T16:44:36.921Z,33.97
2023-04-23T16:49:39.834Z,33.97
2023-04-23T16:54:42.929Z,34.32
2023-04-23T16:59:45.924Z,34.46
2023-04-23T17:04:49.077Z,34.83
2023-04-23T17:09:52.328Z,34.72
2023-04-23T17:14:55.059Z,35.02
2023-04-23T17:19:57.847Z,35.31
2023-04-23T17:25:00.775Z,35.01
2023-04-23T17:30:03.607Z,35.40
2023-04-23T17:35:10.551Z,35.71
2023-04-23T17:40:15.769Z,35.77
2023-04-23T17:45:19.042Z,35.47
2023-04-23T17:50:22.421Z,35.39
2023-04-23T17:55:26.142Z,35.80
2023-04-23T18:00:29.035Z,35.59
2023-04-23T18:05:31.987Z,35.68
2023-04-23T18:10:34.894Z,36.08
2023-04-23T18:15:38.695Z,36.35
2023-04-23T18:20:41.457Z,36.11
2023-04-23T18:25:44.302Z,35.98
2023-04-23T18:30:47.412Z,36.08
2023-04-23T18:35:50.297Z,36.17
2023-04-23T18:40:53.016Z,36.71
2023-04-23T18:45:56.153Z,36.80
2023-04-23T18:50:59.669Z,37.03
2023-04-23T18:56:02.416Z,37.25
2023-04-23T19:01:05.653Z,37.30
2023-04-23T19:06:08.532Z,37.25
2023-04-23T19:11:11.682Z,37.38
2023-04-23T19:16:17.023Z,37.32
2023-04-23T19:21:19.908Z,37.30
2023-04-23T19:26:22.650Z,37.41
2023-04-23T19:31:25.878Z,37.60
2023-04-23T19:36:28.729Z,37.59
2023-04-23T19:41:31.624Z,38.00
2023-04-23T19:46:34.473Z,37.79
2023-04-23T19:51:38.375Z,38.03
2023-04-23T19:56:41.140Z,37.96
2023-04-23T20:01:44.228Z,38.31
2023-04-23T20:06:47.293Z,38.24
2023-04-23T20:11:50.108Z,38.31
2023-04-23T20:16:53.068Z,38.16
2023-04-23T20:21:55.881Z,38.27
2023-04-23T20:26:59.007Z,38.54
2023-04-23T20:32:01.987Z,38.46
2023-04-23T20:37:07.096Z,38.98
2023-04-23T20:42:10.370Z,38.68
2023-04-23T20:47:14.322Z,38.86
2023-04-23T20:52:17.238Z,38.81
2023-04-23T20:57:20.098Z,39.59
2023-04-23T21:02:22.979Z,39.35
2023-04-23T21:07:25.817Z,39.04
2023-04-23T21:12:28.810Z,38.53
2023-04-23T21:17:31.645Z,39.22
2023-04-23T21:22:34.898Z,39.24
2023-04-23T21:27:37.663Z,38.92
2023-04-23T21:32:40.702Z,39.05
2023-04-23T21:37:43.418Z,38.87
2023-04-23T21:42:47.942Z,38.90
2023-04-23T21:47:51.335Z,38.83
2023-04-23T21:52:58.768Z,38.66
2023-04-23T22:03:08.381Z,38.68
2023-04-23T22:08:11.669Z,38.22
2023-04-23T22:13:15.446Z,38.11
2023-04-23T22:18:18.321Z,38.28
2023-04-23T22:23:21.989Z,38.19
2023-04-23T22:28:24.726Z,38.44
2023-04-23T22:33:28.706Z,38.73
2023-04-23T22:38:31.550Z,38.71
2023-04-23T22:43:34.370Z,38.77
2023-04-23T22:48:45.130Z,38.92
2023-04-23T22:53:47.911Z,38.77
2023-04-23T22:58:50.682Z,39.27
2023-04-23T23:03:53.582Z,39.03
2023-04-23T23:08:56.774Z,39.03
2023-04-23T23:13:59.870Z,39.43
2023-04-23T23:19:03.215Z,39.17
2023-04-23T23:24:06.413Z,39.43
2023-04-23T23:29:09.143Z,39.39
2023-04-23T23:34:12.479Z,39.27
2023-04-23T23:39:19.334Z,39.62
2023-04-23T23:44:22.125Z,39.39
2023-04-23T23:49:24.996Z,39.38
2023-04-23T23:54:27.772Z,39.52
2023-04-23T23:59:30.539Z,39.46
